X  Blizu METAR Podaci o vazduhoplovstvu     EHRD Rotterdam The Hague Airport
Temperatura
10°C Temperatura
10°C Tačka Rose
100% Vlaga



Vetar
5 KM/S
3 MPS
1 M/S
3 Čvorovi



290°
ZSZ
Trenutna situacija

Vedro Vedro
Vazdušni pritisak 1025.92 (hPa) - 30.3 (inHg)
Vidljivost 3.7 (Milje) - 6 (km)
Aerodrom
Aerodromski kod. EHRD

Lokacija: Rotterdam The Hague Airport
Udaljenost: 16 (km)

Metar:
EHRD 130225Z AUTO 29003KT 6000 NCD 10/10 Q1026 TEMPO 4000 MIFG

Vreme: 13-06-2021 04:25 CEST